Time;durP1;ratioP1;P1;durP2;ratioP2;P2;SDS_P1;SDS_P2;PMS_P1;PMS_P2;Temp;Humidity;BMP_temperature;BMP_pressure;BME280_temperature;BME280_humidity;BME280_pressure;Samples;Min_cycle;Max_cycle;Signal;HPM_P1;HPM_P2
2022/05/10 00:00:35;;;;;;;14.10;4.90;;;;;;;10.57;35.65;99898.13;25106;1315;3028279;-64
2022/05/10 00:03:06;;;;;;;18.20;4.80;;;;;;;10.52;35.51;99897.89;25143;1315;3055506;-64
2022/05/10 00:05:37;;;;;;;10.80;4.90;;;;;;;10.49;35.79;99901.90;25133;1315;3026558;-64
2022/05/10 00:08:09;;;;;;;10.90;5.20;;;;;;;10.45;35.73;99903.34;25134;1316;3026667;-63
2022/05/10 00:10:38;;;;;;;17.30;5.20;;;;;;;10.36;36.08;99904.00;25088;1316;3027474;-66
2022/05/10 00:13:07;;;;;;;12.40;4.60;;;;;;;10.27;36.49;99903.75;25143;1316;3026828;-65
2022/05/10 00:15:36;;;;;;;11.70;5.10;;;;;;;10.31;36.28;99904.91;25158;1315;3055553;-63
2022/05/10 00:18:08;;;;;;;14.10;6.20;;;;;;;10.23;36.21;99906.40;25075;1316;3026040;-66
2022/05/10 00:20:38;;;;;;;17.60;6.20;;;;;;;10.21;36.36;99905.27;25119;1314;3027156;-66
2022/05/10 00:23:07;;;;;;;14.80;5.10;;;;;;;10.21;36.27;99904.20;25035;1316;3026560;-65
2022/05/10 00:25:38;;;;;;;14.10;6.20;;;;;;;10.12;36.51;99903.61;25100;1315;3050438;-64
2022/05/10 00:28:07;;;;;;;17.90;5.60;;;;;;;10.09;36.68;99901.17;25129;1316;3026935;-63
2022/05/10 00:30:37;;;;;;;13.00;5.20;;;;;;;10.02;36.62;99898.36;25133;1316;3029988;-64
2022/05/10 00:33:06;;;;;;;15.20;5.90;;;;;;;10.04;36.64;99899.14;25193;1316;3053726;-64
2022/05/10 00:35:35;;;;;;;18.50;6.90;;;;;;;10.09;36.62;99899.23;25111;1315;3027670;-65
2022/05/10 00:38:04;;;;;;;14.50;6.40;;;;;;;10.08;36.34;99899.84;25132;1316;3054948;-66
2022/05/10 00:40:35;;;;;;;19.50;7.20;;;;;;;10.09;36.56;99901.86;25147;1316;3026167;-64
2022/05/10 00:43:23;;;;;;;19.90;7.50;;;;;;;9.97;36.54;99897.89;25119;1316;3027668;-66
2022/05/10 00:45:57;;;;;;;20.40;7.40;;;;;;;9.99;36.60;99899.38;25176;1316;3049883;-65
2022/05/10 00:48:33;;;;;;;19.80;7.10;;;;;;;10.01;36.65;99905.44;25154;1316;3052925;-61
2022/05/10 00:51:24;;;;;;;26.50;8.70;;;;;;;10.01;36.68;99905.26;25144;1315;3055267;-65
2022/05/10 00:54:19;;;;;;;18.20;7.10;;;;;;;9.90;36.86;99902.81;25173;1315;3056498;-62
2022/05/10 00:57:22;;;;;;;18.60;6.70;;;;;;;9.87;37.04;99901.77;25037;1316;3053070;-64
2022/05/10 01:00:03;;;;;;;20.60;7.00;;;;;;;9.69;37.30;99908.07;25115;1315;3053994;-65
2022/05/10 01:02:51;;;;;;;21.20;7.20;;;;;;;9.62;37.66;99905.11;25094;1315;3055304;-65
2022/05/10 01:05:51;;;;;;;16.70;7.10;;;;;;;9.59;38.02;99904.55;25095;1315;3068535;-64
2022/05/10 01:08:28;;;;;;;23.40;7.40;;;;;;;9.43;38.29;99910.20;25096;1316;3049271;-65
2022/05/10 01:11:05;;;;;;;23.10;8.00;;;;;;;9.34;38.78;99906.80;25111;1315;3055404;-64
2022/05/10 01:13:54;;;;;;;21.00;5.90;;;;;;;9.31;38.78;99906.61;25114;1316;3053728;-62
2022/05/10 01:16:24;;;;;;;16.20;5.70;;;;;;;9.22;39.11;99909.64;25113;1316;3059408;-65
2022/05/10 01:18:53;;;;;;;17.00;5.10;;;;;;;9.17;39.16;99910.77;25069;1316;3026525;-63
2022/05/10 01:21:46;;;;;;;16.70;5.10;;;;;;;9.08;39.50;99910.30;25139;1315;3026767;-62
2022/05/10 01:24:53;;;;;;;12.20;5.00;;;;;;;9.07;39.52;99908.80;25085;1316;3053810;-64
2022/05/10 01:28:07;;;;;;;12.60;4.40;;;;;;;9.03;39.86;99911.25;25057;1316;3071335;-63
2022/05/10 01:30:36;;;;;;;15.70;5.20;;;;;;;8.89;40.23;99911.55;24993;1315;3051245;-65
2022/05/10 01:36:06;;;;;;;12.70;3.90;;;;;;;8.82;40.27;99906.80;25126;1316;3069247;-64
2022/05/10 01:38:54;;;;;;;10.70;3.90;;;;;;;8.67;40.31;99902.92;25057;1315;3052022;-65
2022/05/10 01:41:37;;;;;;;11.80;3.80;;;;;;;8.59;40.38;99902.80;25078;1315;3052474;-64
2022/05/10 01:44:10;;;;;;;10.60;3.40;;;;;;;8.53;40.57;99902.02;25121;1316;3053285;-64
2022/05/10 01:46:39;;;;;;;11.80;3.10;;;;;;;8.51;40.53;99900.55;25068;1315;3026492;-64
2022/05/10 01:49:33;;;;;;;10.40;3.50;;;;;;;8.46;40.54;99903.70;25100;1314;3026791;-65
2022/05/10 01:52:25;;;;;;;11.80;4.30;;;;;;;8.48;40.68;99903.13;25104;1316;3052838;-66
2022/05/10 01:55:19;;;;;;;13.90;3.70;;;;;;;8.47;40.69;99903.86;25129;1316;3057424;-65
2022/05/10 01:57:48;;;;;;;9.70;3.80;;;;;;;8.47;40.90;99909.27;25067;1316;3048320;-63
2022/05/10 02:00:22;;;;;;;6.10;2.90;;;;;;;8.35;41.19;99910.64;25113;1315;3025982;-65
2022/05/10 02:03:00;;;;;;;;;;;;;;;8.34;41.25;99912.61;25128;1316;3057567;-64
2022/05/10 02:06:07;;;;;;;9.70;3.60;;;;;;;8.32;41.57;99910.43;25104;1316;3049798;-64
2022/05/10 02:08:51;;;;;;;9.10;3.10;;;;;;;8.27;41.42;99911.69;25133;1315;3055439;-64
2022/05/10 02:11:22;;;;;;;9.70;3.40;;;;;;;8.20;41.50;99911.46;25022;1315;3053892;-63
2022/05/10 02:14:05;;;;;;;14.60;3.90;;;;;;;8.22;41.57;99914.35;25068;1316;3026466;-64
2022/05/10 02:16:44;;;;;;;13.40;3.50;;;;;;;8.19;41.75;99916.21;25459;1315;3047845;-64
2022/05/10 02:19:25;;;;;;;11.70;3.50;;;;;;;8.15;41.92;99915.51;25557;1315;3052443;-62
2022/05/10 02:21:58;;;;;;;11.70;3.50;;;;;;;8.16;41.77;99914.97;25458;1315;3051987;-61
2022/05/10 02:24:34;;;;;;;8.90;3.20;;;;;;;8.12;41.80;99915.30;25186;1315;3026277;-62
2022/05/10 02:27:12;;;;;;;9.60;3.30;;;;;;;8.14;41.82;99912.09;25115;1316;3053330;-63
2022/05/10 02:29:49;;;;;;;13.10;2.90;;;;;;;8.21;41.44;99915.42;25047;1316;3055949;-65
2022/05/10 02:35:15;;;;;;;10.10;3.40;;;;;;;8.27;41.50;99917.63;25112;1316;3070779;-64
2022/05/10 02:37:44;;;;;;;14.40;3.40;;;;;;;8.31;41.32;99917.30;25087;1316;3026076;-64
2022/05/10 02:40:13;;;;;;;11.60;3.80;;;;;;;8.35;40.93;99915.71;25182;1315;3029505;-65
2022/05/10 02:42:48;;;;;;;13.70;4.50;;;;;;;8.41;40.84;99917.71;25021;1314;3070848;-64
2022/05/10 02:45:20;;;;;;;15.30;4.00;;;;;;;8.49;40.63;99918.09;25058;1316;3049528;-64
2022/05/10 02:47:49;;;;;;;15.30;4.50;;;;;;;8.58;40.32;99919.42;25106;1315;3026351;-66
2022/05/10 02:50:33;;;;;;;20.10;4.80;;;;;;;8.55;40.39;99925.14;25117;1316;3027277;-65
2022/05/10 02:53:02;;;;;;;19.40;4.20;;;;;;;8.56;40.35;99929.80;25101;1315;3059354;-65
2022/05/10 02:55:48;;;;;;;16.00;4.20;;;;;;;8.57;40.44;99931.55;25067;1316;3026788;-62
2022/05/10 02:58:30;;;;;;;12.20;4.30;;;;;;;8.56;40.38;99924.92;25034;1315;3055044;-65
2022/05/10 03:01:17;;;;;;;19.30;6.20;;;;;;;8.62;40.30;99926.25;25064;1315;3057206;-66
2022/05/10 03:03:47;;;;;;;23.00;7.30;;;;;;;8.69;40.05;99926.27;25098;1316;3052909;-65
2022/05/10 03:06:20;;;;;;;18.00;6.60;;;;;;;8.75;40.07;99925.30;25052;1316;3026701;-62
2022/05/10 03:08:51;;;;;;;22.50;5.50;;;;;;;8.74;40.30;99928.67;25147;1315;3026551;-63
2022/05/10 03:11:20;;;;;;;22.30;5.60;;;;;;;8.67;40.48;99932.81;25022;1315;3028300;-62
2022/05/10 03:13:49;;;;;;;22.50;5.30;;;;;;;8.61;40.89;99933.46;25119;1316;3055386;-64
2022/05/10 03:16:18;;;;;;;20.60;6.30;;;;;;;8.56;41.23;99934.55;25074;1316;3026952;-67
2022/05/10 03:18:47;;;;;;;18.20;5.20;;;;;;;8.57;41.30;99935.35;25098;1315;3026882;-63
2022/05/10 03:21:16;;;;;;;19.30;5.50;;;;;;;8.58;41.44;99937.25;25111;1316;3055218;-64
2022/05/10 03:23:46;;;;;;;22.00;6.20;;;;;;;8.60;41.28;99935.77;25137;1316;3026102;-65
2022/05/10 03:26:16;;;;;;;22.10;8.00;;;;;;;8.60;41.19;99938.02;25086;1315;3030745;-62
2022/05/10 03:28:45;;;;;;;26.00;7.00;;;;;;;8.57;41.03;99942.36;25057;1315;3052361;-65
2022/05/10 03:31:15;;;;;;;30.10;8.30;;;;;;;8.63;41.31;99938.60;25123;1315;3026479;-62
2022/05/10 03:33:44;;;;;;;24.40;7.60;;;;;;;8.61;41.06;99947.25;25116;1316;3048085;-68
2022/05/10 03:36:13;;;;;;;24.00;7.50;;;;;;;8.57;41.68;99947.93;25090;1315;3026419;-66
2022/05/10 03:38:43;;;;;;;21.70;6.20;;;;;;;8.55;41.68;99951.67;25118;1315;3058431;-64
2022/05/10 03:41:12;;;;;;;25.00;6.90;;;;;;;8.58;41.87;99952.59;25154;1315;3026694;-65
2022/05/10 03:43:41;;;;;;;23.00;7.80;;;;;;;8.68;41.56;99953.57;25070;1315;3054374;-62
2022/05/10 03:46:10;;;;;;;22.40;7.90;;;;;;;8.64;41.90;99955.68;25155;1315;3026514;-63
2022/05/10 03:48:40;;;;;;;32.40;8.70;;;;;;;8.64;41.74;99954.41;25070;1315;3054618;-64
2022/05/10 03:51:09;;;;;;;23.30;7.90;;;;;;;8.71;41.28;99957.27;25025;1316;3026234;-63
2022/05/10 03:53:38;;;;;;;24.10;9.30;;;;;;;8.72;41.60;99960.71;25084;1316;3050364;-62
2022/05/10 03:56:07;;;;;;;32.00;9.60;;;;;;;8.77;41.41;99960.30;25107;1315;3026632;-64
2022/05/10 03:58:37;;;;;;;27.50;9.00;;;;;;;8.76;41.65;99961.25;25073;1315;3070492;-65
2022/05/10 04:01:09;;;;;;;33.90;9.10;;;;;;;8.87;41.55;99958.66;25097;1315;3026303;-66
2022/05/10 04:03:38;;;;;;;26.40;8.50;;;;;;;8.94;41.58;99958.48;25163;1312;3027246;-64
2022/05/10 04:06:07;;;;;;;24.90;7.50;;;;;;;8.99;41.35;99953.20;25065;1313;3026491;-64
2022/05/10 04:08:37;;;;;;;25.90;7.00;;;;;;;9.05;40.76;99951.89;25121;1312;3051419;-65
2022/05/10 04:11:08;;;;;;;21.40;6.90;;;;;;;9.17;40.92;99956.90;25110;1312;3026469;-64
2022/05/10 04:13:38;;;;;;;22.10;6.10;;;;;;;9.29;40.47;99951.09;25152;1312;3027212;-66
2022/05/10 04:16:07;;;;;;;23.30;5.60;;;;;;;9.40;40.44;99949.04;24775;1316;3516374;-64
2022/05/10 04:18:36;;;;;;;26.10;6.00;;;;;;;9.52;40.24;99951.77;25147;1313;3026105;-66
2022/05/10 04:21:05;;;;;;;19.20;6.30;;;;;;;9.69;39.87;99956.37;25139;1313;3051335;-65
2022/05/10 04:23:35;;;;;;;20.80;6.20;;;;;;;9.77;39.52;99958.24;25150;1312;3026985;-66
2022/05/10 04:26:05;;;;;;;25.20;6.00;;;;;;;9.80;39.73;99956.85;25051;1312;3051427;-66
2022/05/10 04:28:35;;;;;;;21.00;6.70;;;;;;;9.92;39.63;99957.30;25158;1312;3027441;-65
2022/05/10 04:31:04;;;;;;;24.30;5.70;;;;;;;10.04;39.21;99958.85;25069;1312;3026665;-65
2022/05/10 04:33:34;;;;;;;27.20;6.80;;;;;;;10.12;38.43;99956.64;25098;1313;3026930;-63
2022/05/10 04:36:03;;;;;;;20.00;6.80;;;;;;;10.13;37.54;99959.23;25080;1313;3026425;-63
2022/05/10 04:38:32;;;;;;;21.20;7.00;;;;;;;10.28;36.99;99959.01;25138;1312;3058312;-66
2022/05/10 04:43:49;;;;;;;25.30;8.20;;;;;;;10.56;35.63;99960.20;25107;1313;3055401;-64
2022/05/10 04:46:18;;;;;;;29.50;8.00;;;;;;;10.68;35.07;99955.55;25079;1313;3026817;-65
2022/05/10 04:48:48;;;;;;;25.70;8.20;;;;;;;10.76;34.63;99949.84;25153;1312;3054568;-65
2022/05/10 04:51:17;;;;;;;19.90;6.90;;;;;;;10.68;33.93;99954.29;25170;1314;3026707;-65
2022/05/10 04:53:47;;;;;;;25.00;6.40;;;;;;;10.66;33.82;99954.77;25124;1313;3026221;-65
2022/05/10 04:56:16;;;;;;;22.70;6.80;;;;;;;10.77;34.12;99951.20;25157;1313;3051807;-66
2022/05/10 04:58:45;;;;;;;22.00;7.70;;;;;;;10.85;33.94;99950.42;25133;1312;3026512;-63
2022/05/10 05:01:15;;;;;;;18.40;6.80;;;;;;;10.92;34.26;99953.93;25066;1312;3026265;-64
2022/05/10 05:03:46;;;;;;;26.40;6.70;;;;;;;11.08;34.24;99957.81;25119;1314;3051815;-66
2022/05/10 05:06:16;;;;;;;27.60;6.80;;;;;;;11.24;33.85;99958.48;25147;1313;3026377;-63
2022/05/10 05:08:46;;;;;;;22.90;8.50;;;;;;;11.31;33.46;99962.85;25140;1312;3027442;-63
2022/05/10 05:11:16;;;;;;;29.70;8.90;;;;;;;11.23;33.37;99958.90;25139;1315;3026797;-63
2022/05/10 05:13:45;;;;;;;32.30;9.40;;;;;;;11.16;33.16;99961.36;25134;1312;3054517;-63
2022/05/10 05:16:14;;;;;;;29.30;8.50;;;;;;;11.30;33.21;99962.69;25068;1313;3026495;-64
2022/05/10 05:18:43;;;;;;;26.40;9.30;;;;;;;11.41;32.71;99964.03;25088;1314;3055325;-65
2022/05/10 05:21:13;;;;;;;29.40;9.60;;;;;;;11.47;32.76;99959.16;25138;1313;3027075;-65
2022/05/10 05:23:42;;;;;;;22.30;8.40;;;;;;;11.49;32.60;99970.06;25131;1312;3026666;-65
2022/05/10 05:26:12;;;;;;;29.90;8.40;;;;;;;11.53;33.01;99963.73;25144;1312;3026633;-64
2022/05/10 05:28:42;;;;;;;29.10;7.70;;;;;;;11.57;32.31;99963.52;25193;1312;3052162;-63
2022/05/10 05:31:12;;;;;;;20.10;6.50;;;;;;;11.59;31.91;99962.64;25132;1312;3026372;-65
2022/05/10 05:33:41;;;;;;;17.80;6.40;;;;;;;11.71;31.79;99958.14;25093;1313;3051479;-65
2022/05/10 05:36:10;;;;;;;16.40;5.60;;;;;;;11.84;31.44;99961.91;25159;1312;3026525;-66
2022/05/10 05:39:24;;;;;;;18.10;4.90;;;;;;;12.08;31.15;99960.76;31439;1318;3026056;-63
2022/05/10 05:41:53;;;;;;;23.20;7.40;;;;;;;12.45;31.51;99958.41;24944;1321;3026201;-64
2022/05/10 05:44:23;;;;;;;14.00;5.90;;;;;;;12.76;30.14;99960.01;25022;1321;3026509;-66
2022/05/10 05:46:53;;;;;;;20.80;7.00;;;;;;;12.62;30.79;99960.33;24963;1321;3049107;-68
2022/05/10 05:49:25;;;;;;;23.00;5.80;;;;;;;12.61;30.69;99961.11;24976;1321;3026988;-64
2022/05/10 05:51:56;;;;;;;23.00;5.60;;;;;;;12.68;30.74;99958.38;24769;1318;3313512;-64
2022/05/10 05:54:25;;;;;;;13.80;5.40;;;;;;;12.73;30.19;99959.66;25102;1315;3026559;-66
2022/05/10 05:57:05;;;;;;;30.50;6.70;;;;;;;12.78;30.69;99956.58;25167;1315;3026894;-65
2022/05/10 05:59:34;;;;;;;22.20;7.80;;;;;;;12.90;30.45;99954.43;25158;1315;3054272;-66
2022/05/10 06:02:07;;;;;;;21.00;7.60;;;;;;;12.90;30.34;99955.46;25111;1315;3026839;-65
2022/05/10 06:04:36;;;;;;;27.50;8.50;;;;;;;13.00;30.38;99953.45;25161;1315;3050523;-68
2022/05/10 06:07:05;;;;;;;27.50;8.80;;;;;;;12.88;30.55;99953.66;25110;1315;3026281;-67
2022/05/10 06:09:34;;;;;;;19.50;7.90;;;;;;;12.91;31.16;99956.78;25177;1315;3058512;-66
2022/05/10 06:12:05;;;;;;;32.20;8.60;;;;;;;13.08;30.88;99950.27;25127;1315;3027554;-64
2022/05/10 06:14:35;;;;;;;30.80;8.70;;;;;;;13.11;30.98;99951.36;25124;1315;3051916;-65
2022/05/10 06:17:06;;;;;;;35.90;9.70;;;;;;;13.24;31.09;99948.77;25168;1313;3027187;-68
2022/05/10 06:19:37;;;;;;;28.30;7.70;;;;;;;13.22;30.60;99949.90;25162;1315;3027509;-68
2022/05/10 06:22:08;;;;;;;20.10;5.80;;;;;;;13.13;29.94;99952.27;25153;1315;3026592;-66
2022/05/10 06:24:38;;;;;;;25.70;6.20;;;;;;;13.12;29.64;99946.86;25182;1315;3026805;-63
2022/05/10 06:27:10;;;;;;;27.10;7.50;;;;;;;13.07;30.29;99944.23;25115;1315;3026265;-64
2022/05/10 06:29:40;;;;;;;21.40;6.10;;;;;;;13.13;30.54;99944.73;25145;1315;3048644;-65
2022/05/10 06:32:11;;;;;;;15.00;4.90;;;;;;;13.23;29.89;99943.36;25164;1315;3026161;-65
2022/05/10 06:34:41;;;;;;;16.50;5.20;;;;;;;13.25;29.83;99944.61;25132;1315;3067831;-65
2022/05/10 06:39:58;;;;;;;12.10;4.70;;;;;;;13.43;29.95;99940.16;25160;1315;3051041;-66
2022/05/10 06:42:27;;;;;;;14.00;4.30;;;;;;;13.52;29.86;99943.27;25119;1315;3026429;-65
2022/05/10 06:44:56;;;;;;;14.70;4.00;;;;;;;13.52;29.22;99939.42;25164;1315;3026467;-65
2022/05/10 06:47:25;;;;;;;9.50;3.30;;;;;;;13.53;29.06;99938.83;25130;1315;3029543;-66
2022/05/10 06:49:54;;;;;;;10.90;3.70;;;;;;;13.55;28.95;99937.10;25142;1315;3069109;-67
2022/05/10 06:52:26;;;;;;;13.90;3.60;;;;;;;13.52;28.69;99936.61;25117;1315;3028153;-62
2022/05/10 06:54:56;;;;;;;10.70;3.60;;;;;;;13.66;28.94;99932.17;25120;1315;3026662;-63
2022/05/10 06:57:25;;;;;;;12.10;3.70;;;;;;;13.64;28.91;99934.91;25161;1315;3069694;-67
2022/05/10 06:59:54;;;;;;;13.80;3.20;;;;;;;13.40;28.93;99938.27;25153;1315;3026394;-68
2022/05/10 07:02:26;;;;;;;13.90;3.30;;;;;;;13.28;29.10;99933.35;25131;1315;3049486;-66
2022/05/10 07:04:56;;;;;;;7.90;2.90;;;;;;;13.34;29.57;99927.88;25118;1315;3026510;-68
2022/05/10 07:07:27;;;;;;;11.10;3.10;;;;;;;13.44;29.10;99927.98;25077;1315;3027225;-68
2022/05/10 07:10:04;;;;;;;11.10;2.80;;;;;;;13.58;28.89;99924.02;25157;1315;3055437;-67
2022/05/10 07:12:33;;;;;;;9.60;2.30;;;;;;;13.43;27.69;99927.13;25137;1315;3026475;-67
2022/05/10 07:15:05;;;;;;;10.50;2.30;;;;;;;13.39;27.68;99925.14;25349;1315;3026335;-64
2022/05/10 07:17:34;;;;;;;6.10;2.30;;;;;;;13.29;27.80;99925.08;25484;1315;3026751;-65
2022/05/10 07:20:08;;;;;;;12.50;2.30;;;;;;;13.28;28.66;99924.91;25551;1315;3026828;-64
2022/05/10 07:22:38;;;;;;;6.70;2.40;;;;;;;13.39;28.06;99919.49;25311;1315;3058095;-67
2022/05/10 07:25:08;;;;;;;7.10;2.40;;;;;;;13.40;28.00;99917.69;25152;1315;3026572;-66
2022/05/10 07:27:39;;;;;;;14.30;2.50;;;;;;;13.64;28.14;99916.80;25119;1315;3026558;-68
2022/05/10 07:30:09;;;;;;;7.50;2.30;;;;;;;13.73;27.51;99915.55;25140;1315;3027676;-66
2022/05/10 07:32:39;;;;;;;11.00;3.20;;;;;;;13.79;27.94;99916.19;25091;1315;3026240;-67
2022/05/10 07:35:08;;;;;;;16.40;3.30;;;;;;;13.70;28.73;99916.09;25034;1315;3026978;-67
2022/05/10 07:37:39;;;;;;;8.40;2.50;;;;;;;13.69;28.39;99913.85;25137;1315;3052409;-65
2022/05/10 07:40:10;;;;;;;9.40;2.30;;;;;;;13.59;27.11;99922.43;25107;1315;3026846;-68
2022/05/10 07:42:40;;;;;;;7.10;1.60;;;;;;;13.75;26.81;99908.31;25095;1315;3030133;-67
2022/05/10 07:45:10;;;;;;;4.00;1.50;;;;;;;14.03;26.60;99916.16;25152;1315;3026592;-67
2022/05/10 07:47:43;;;;;;;7.10;2.40;;;;;;;14.00;26.37;99905.22;25125;1315;3028796;-66
2022/05/10 07:50:12;;;;;;;5.10;2.10;;;;;;;13.92;27.02;99892.94;25124;1315;3030118;-65
2022/05/10 07:52:42;;;;;;;7.30;2.30;;;;;;;14.21;26.45;99901.68;25153;1314;3026376;-67
2022/05/10 07:55:12;;;;;;;10.60;1.70;;;;;;;14.04;25.54;99910.92;25125;1314;3052550;-67
2022/05/10 07:57:43;;;;;;;8.80;2.30;;;;;;;13.85;25.78;99909.58;25120;1315;3026368;-68
2022/05/10 08:00:13;;;;;;;10.20;2.60;;;;;;;13.84;26.05;99905.29;25101;1315;3026953;-69
2022/05/10 08:02:44;;;;;;;16.40;2.50;;;;;;;13.88;26.14;99894.05;25188;1315;3051640;-66
2022/05/10 08:05:19;;;;;;;9.20;2.20;;;;;;;13.93;26.23;99899.42;25132;1315;3027415;-65
2022/05/10 08:07:48;;;;;;;7.90;2.00;;;;;;;14.18;25.89;99892.09;25181;1315;3054058;-67
2022/05/10 08:10:22;;;;;;;7.10;2.80;;;;;;;14.38;25.65;99888.38;25127;1315;3054788;-70
2022/05/10 08:12:51;;;;;;;5.60;2.10;;;;;;;14.29;24.68;99898.17;25166;1315;3026264;-66
2022/05/10 08:15:23;;;;;;;10.80;1.80;;;;;;;14.24;25.16;99897.60;25148;1315;3026338;-66
2022/05/10 08:17:52;;;;;;;4.60;1.80;;;;;;;14.42;25.21;99892.00;25168;1315;3026545;-69
2022/05/10 08:20:21;;;;;;;5.00;2.00;;;;;;;14.40;24.83;99894.62;25124;1315;3027012;-66
2022/05/10 08:22:51;;;;;;;18.80;2.60;;;;;;;14.26;24.75;99898.24;25159;1315;3049515;-67
2022/05/10 08:25:20;;;;;;;6.90;1.90;;;;;;;14.36;24.93;99886.76;25171;1315;3026627;-68
2022/05/10 08:27:49;;;;;;;6.20;2.00;;;;;;;14.62;24.88;99879.13;25141;1315;3055484;-65
2022/05/10 08:30:18;;;;;;;6.50;2.30;;;;;;;14.94;24.57;99876.30;25166;1315;3030114;-66
2022/05/10 08:32:48;;;;;;;9.20;2.10;;;;;;;15.16;24.30;99875.48;25164;1315;3054381;-67
2022/05/10 08:35:18;;;;;;;5.00;2.10;;;;;;;14.93;24.09;99875.20;25117;1315;3028180;-68
2022/05/10 08:37:47;;;;;;;8.70;2.70;;;;;;;14.95;24.39;99871.31;25122;1315;3051854;-65
2022/05/10 08:40:41;;;;;;;16.20;4.00;;;;;;;14.86;24.34;99867.55;25118;1315;3027243;-67
2022/05/10 08:43:29;;;;;;;10.20;2.70;;;;;;;14.49;25.28;99868.20;25146;1315;3057723;-63
2022/05/10 08:45:58;;;;;;;11.20;3.20;;;;;;;14.42;24.89;99864.85;25141;1315;3050137;-66
2022/05/10 08:48:31;;;;;;;5.20;2.30;;;;;;;14.63;24.68;99854.77;25086;1315;3026887;-68
2022/05/10 08:51:00;;;;;;;11.00;2.80;;;;;;;14.50;23.54;99852.16;25051;1315;3056458;-66
2022/05/10 08:53:30;;;;;;;5.90;2.50;;;;;;;14.67;22.71;99852.17;25079;1315;3026233;-67
2022/05/10 08:56:03;;;;;;;20.20;3.20;;;;;;;14.91;22.91;99845.90;25145;1315;3026380;-68
2022/05/10 08:58:55;;;;;;;5.50;2.20;;;;;;;15.04;22.68;99846.19;25115;1315;3027665;-66
2022/05/10 09:01:28;;;;;;;7.60;2.10;;;;;;;14.87;22.33;99841.96;25106;1315;3068272;-68
2022/05/10 09:04:33;;;;;;;7.10;2.10;;;;;;;14.55;22.15;99848.97;25158;1315;3026909;-67
2022/05/10 09:07:33;;;;;;;7.00;2.20;;;;;;;14.59;22.24;99837.20;25102;1315;3055116;-65
2022/05/10 09:10:32;;;;;;;8.10;2.00;;;;;;;15.20;22.05;99833.89;25164;1315;3052394;-70
2022/05/10 09:13:06;;;;;;;9.00;2.10;;;;;;;15.52;21.47;99830.27;25158;1318;3058778;-68
2022/05/10 09:15:44;;;;;;;7.20;2.40;;;;;;;15.41;21.14;99829.52;25158;1315;3026514;-68
2022/05/10 09:18:22;;;;;;;5.40;2.10;;;;;;;15.45;21.23;99822.86;25161;1315;3053133;-67
2022/05/10 09:21:27;;;;;;;12.50;2.50;;;;;;;15.73;21.18;99814.91;25191;1315;3051762;-65
2022/05/10 09:24:08;;;;;;;7.10;2.70;;;;;;;15.09;21.85;99822.16;25173;1315;3068571;-67
2022/05/10 09:26:43;;;;;;;11.90;2.50;;;;;;;15.06;21.73;99820.80;25121;1315;3051822;-69
2022/05/10 09:29:28;;;;;;;10.80;2.50;;;;;;;14.92;21.86;99820.74;25160;1317;3052692;-68
2022/05/10 09:35:00;;;;;;;9.60;2.20;;;;;;;15.51;21.19;99808.10;25094;1318;3056650;-66
2022/05/10 09:37:31;;;;;;;9.50;2.50;;;;;;;15.64;20.74;99805.13;25156;1315;3050280;-70
2022/05/10 09:40:32;;;;;;;9.50;2.50;;;;;;;15.62;21.41;99798.97;25142;1315;3026957;-64
2022/05/10 09:43:11;;;;;;;10.70;2.80;;;;;;;15.55;20.85;99798.98;25136;1315;3051745;-64
2022/05/10 09:45:42;;;;;;;8.20;2.60;;;;;;;15.03;21.57;99793.68;25165;1315;3070706;-70
2022/05/10 09:48:15;;;;;;;6.40;2.40;;;;;;;14.76;22.38;99789.67;25081;1315;3026809;-68
2022/05/10 09:50:46;;;;;;;10.10;2.70;;;;;;;14.99;22.12;99796.13;25193;1315;3054250;-64
2022/05/10 09:53:29;;;;;;;9.00;2.50;;;;;;;15.17;21.34;99788.23;25150;1315;3026567;-69
2022/05/10 09:56:25;;;;;;;8.00;2.10;;;;;;;15.64;21.03;99790.55;25181;1315;3056849;-65
2022/05/10 09:58:58;;;;;;;15.80;2.40;;;;;;;15.41;21.73;99777.65;25111;1318;3049830;-65
2022/05/10 10:01:44;;;;;;;8.60;1.80;;;;;;;15.29;21.77;99784.73;25125;1315;3026557;-65
2022/05/10 10:04:21;;;;;;;5.10;2.20;;;;;;;14.98;22.55;99774.80;25102;1315;3051678;-64
2022/05/10 10:07:05;;;;;;;7.20;2.00;;;;;;;15.08;22.12;99769.10;25159;1315;3070120;-70
2022/05/10 10:09:36;;;;;;;8.40;1.90;;;;;;;15.23;22.13;99775.42;25152;1316;3051152;-67
2022/05/10 10:12:33;;;;;;;8.10;2.70;;;;;;;15.52;21.85;99778.22;25158;1315;3026962;-62
2022/05/10 10:15:18;;;;;;;6.10;2.30;;;;;;;15.27;22.35;99785.52;25102;1315;3055084;-66
2022/05/10 10:18:04;;;;;;;7.00;2.90;;;;;;;15.25;21.79;99767.70;25137;1315;3058621;-66
2022/05/10 10:20:34;;;;;;;5.60;2.30;;;;;;;15.50;21.51;99771.50;25103;1315;3049834;-66
2022/05/10 10:23:09;;;;;;;7.60;3.10;;;;;;;15.59;21.35;99762.09;25116;1315;3026683;-65
2022/05/10 10:25:41;;;;;;;7.40;2.50;;;;;;;15.86;21.45;99754.79;25168;1313;3051602;-66
2022/05/10 10:28:25;;;;;;;14.10;3.40;;;;;;;16.00;21.35;99748.77;25143;1315;3026825;-69
2022/05/10 10:30:57;;;;;;;13.40;2.70;;;;;;;15.82;21.64;99753.99;25166;1315;3053067;-68
2022/05/10 10:33:49;;;;;;;7.80;2.90;;;;;;;15.66;21.76;99772.02;25132;1315;3026475;-68
2022/05/10 10:36:23;;;;;;;8.80;2.50;;;;;;;15.61;21.90;99754.60;25158;1315;3053956;-66
2022/05/10 10:38:55;;;;;;;8.90;2.10;;;;;;;15.83;22.02;99759.40;25140;1313;3057207;-68
2022/05/10 10:41:31;;;;;;;8.10;2.60;;;;;;;16.01;21.51;99759.10;25105;1315;3051451;-66
2022/05/10 10:44:19;;;;;;;7.10;2.20;;;;;;;16.15;21.22;99756.04;25126;1315;3051294;-66
2022/05/10 10:47:04;;;;;;;8.80;2.30;;;;;;;15.69;21.54;99754.16;25182;1313;3050429;-66
2022/05/10 10:49:39;;;;;;;;;;;;;;;15.87;21.63;99739.01;25123;1315;3071316;-65
2022/05/10 10:52:08;;;;;;;3.70;2.00;;;;;;;16.11;21.50;99735.33;25129;1313;3048964;-71
2022/05/10 10:54:39;;;;;;;15.90;2.90;;;;;;;16.33;21.34;99731.27;25146;1312;3026378;-69
2022/05/10 10:57:27;;;;;;;10.70;2.80;;;;;;;16.58;21.19;99730.67;25113;1315;3026238;-64
2022/05/10 11:00:09;;;;;;;6.40;2.40;;;;;;;15.97;20.93;99732.21;25060;1313;3059301;-63
2022/05/10 11:03:06;;;;;;;7.70;1.90;;;;;;;15.55;21.20;99726.77;25104;1314;3053025;-67
2022/05/10 11:06:06;;;;;;;7.60;2.30;;;;;;;15.40;21.39;99726.18;25099;1313;3055338;-64
2022/05/10 11:08:36;;;;;;;9.90;3.50;;;;;;;15.64;21.35;99724.88;25150;1313;3054294;-69
2022/05/10 11:11:24;;;;;;;9.30;3.40;;;;;;;15.63;21.58;99716.95;25130;1315;3029205;-65
2022/05/10 11:14:45;;;;;;;18.00;3.20;;;;;;;15.77;21.58;99721.79;25130;1313;3054398;-66
2022/05/10 11:17:36;;;;;;;13.70;3.30;;;;;;;15.86;21.24;99713.66;25038;1313;3052736;-68
2022/05/10 11:20:20;;;;;;;16.30;3.50;;;;;;;16.27;20.85;99701.92;25120;1313;3068750;-66
2022/05/10 11:22:52;;;;;;;10.40;2.60;;;;;;;16.72;20.33;99698.43;25153;1313;3049680;-68
2022/05/10 11:25:50;;;;;;;13.20;3.40;;;;;;;16.57;19.96;99691.85;25162;1314;3026514;-67
2022/05/10 11:28:19;;;;;;;9.60;2.40;;;;;;;16.36;19.91;99713.20;25170;1315;3053121;-69
2022/05/10 11:31:19;;;;;;;11.20;2.00;;;;;;;16.48;19.91;99695.26;25197;1313;3026429;-71
2022/05/10 11:34:26;;;;;;;8.10;2.30;;;;;;;17.08;19.63;99685.20;25165;1315;3054496;-67
2022/05/10 11:36:59;;;;;;;9.10;2.50;;;;;;;17.13;19.79;99681.27;25158;1315;3053223;-68
2022/05/10 11:39:52;;;;;;;10.80;2.30;;;;;;;16.94;19.67;99681.64;25111;1316;3026785;-68
2022/05/10 11:42:21;;;;;;;10.70;2.60;;;;;;;16.99;20.05;99675.02;25133;1313;3052403;-67
2022/05/10 11:45:29;;;;;;;10.30;2.50;;;;;;;17.14;19.77;99682.11;25103;1315;3028142;-68
2022/05/10 11:48:37;;;;;;;8.40;2.40;;;;;;;16.81;19.87;99677.40;25171;1313;3051870;-70
2022/05/10 11:51:42;;;;;;;6.00;2.50;;;;;;;16.78;19.92;99672.97;25137;1315;3069258;-68
2022/05/10 11:54:31;;;;;;;7.50;2.40;;;;;;;17.02;20.06;99665.73;25132;1315;3048280;-66
2022/05/10 11:57:00;;;;;;;4.40;2.20;;;;;;;16.94;20.34;99666.89;25161;1315;3052063;-69
2022/05/10 11:59:32;;;;;;;11.50;2.20;;;;;;;16.80;20.31;99668.56;25193;1313;3029815;-69
2022/05/10 12:02:03;;;;;;;11.00;2.60;;;;;;;16.72;20.52;99665.38;25444;1313;3026297;-65
2022/05/10 12:04:42;;;;;;;10.70;2.40;;;;;;;16.45;20.63;99658.39;25492;1315;3026254;-65
2022/05/10 12:07:27;;;;;;;6.50;2.10;;;;;;;16.30;20.93;99654.52;25529;1313;3053996;-67